Time;durP1;ratioP1;P1;durP2;ratioP2;P2;SDS_P1;SDS_P2;PMS_P1;PMS_P2;Temp;Humidity;BMP_temperature;BMP_pressure;BME280_temperature;BME280_humidity;BME280_pressure;Samples;Min_cycle;Max_cycle;Signal;HPM_P1;HPM_P2
2023/06/18 00:01:38;;;;;;;;;5.50;4.00;;;;;;;;117909;1181;25453;-74
2023/06/18 00:04:07;;;;;;;;;9.00;7.00;;;;;;;;117930;1192;25729;-73
2023/06/18 00:06:35;;;;;;;;;9.00;8.50;;;;;;;;117932;1179;25191;-73
2023/06/18 00:09:04;;;;;;;;;8.50;8.50;;;;;;;;117870;1181;24810;-73
2023/06/18 00:11:33;;;;;;;;;12.00;8.50;;;;;;;;117490;1192;24941;-73
2023/06/18 00:14:01;;;;;;;;;9.00;9.00;;;;;;;;117929;1192;24909;-73
2023/06/18 00:16:30;;;;;;;;;11.75;8.75;;;;;;;;117951;1180;25171;-74
2023/06/18 00:18:59;;;;;;;;;8.00;7.00;;;;;;;;117833;1191;25200;-74
2023/06/18 00:21:29;;;;;;;;;8.67;7.67;;;;;;;;117899;1180;24763;-74
2023/06/18 00:23:58;;;;;;;;;13.00;10.00;;;;;;;;117927;1192;25352;-73
2023/06/18 00:26:27;;;;;;;;;8.50;7.00;;;;;;;;117929;1192;25148;-73
2023/06/18 00:28:55;;;;;;;;;10.50;10.00;;;;;;;;117886;1191;24934;-74
2023/06/18 00:31:25;;;;;;;;;10.67;9.00;;;;;;;;117952;1192;26176;-73
2023/06/18 00:33:55;;;;;;;;;12.50;5.50;;;;;;;;117905;1183;25516;-73
2023/06/18 00:36:26;;;;;;;;;8.67;8.67;;;;;;;;117510;1190;25653;-73
2023/06/18 00:38:54;;;;;;;;;5.75;5.75;;;;;;;;117942;1187;25525;-73
2023/06/18 00:41:24;;;;;;;;;10.00;7.50;;;;;;;;117908;1187;25445;-73
2023/06/18 00:43:53;;;;;;;;;12.50;8.00;;;;;;;;117526;1180;25269;-73
2023/06/18 00:46:24;;;;;;;;;7.00;7.00;;;;;;;;117896;1192;24730;-74
2023/06/18 00:48:53;;;;;;;;;12.50;9.50;;;;;;;;117924;1181;25363;-73
2023/06/18 00:51:26;;;;;;;;;10.33;9.00;;;;;;;;117516;1180;25751;-74
2023/06/18 00:53:56;;;;;;;;;6.00;6.00;;;;;;;;117941;1179;24986;-74
2023/06/18 00:56:25;;;;;;;;;9.50;8.75;;;;;;;;117947;1184;25294;-74
2023/06/18 00:58:57;;;;;;;;;10.00;10.00;;;;;;;;117943;1180;25035;-75
2023/06/18 01:01:25;;;;;;;;;8.00;8.00;;;;;;;;117929;1192;25727;-73
2023/06/18 01:03:56;;;;;;;;;9.00;9.00;;;;;;;;117915;1184;25293;-73
2023/06/18 01:06:28;;;;;;;;;10.50;9.50;;;;;;;;117902;1180;25549;-74
2023/06/18 01:08:56;;;;;;;;;11.00;9.00;;;;;;;;117932;1179;24742;-74
2023/06/18 01:11:25;;;;;;;;;11.00;9.33;;;;;;;;117506;1192;24964;-74
2023/06/18 01:13:54;;;;;;;;;13.00;10.00;;;;;;;;117930;1180;25053;-73
2023/06/18 01:16:24;;;;;;;;;9.00;9.00;;;;;;;;117916;1180;25038;-73
2023/06/18 01:18:54;;;;;;;;;10.00;9.00;;;;;;;;117499;1192;24878;-74
2023/06/18 01:21:26;;;;;;;;;10.00;8.67;;;;;;;;117524;1180;25612;-74
2023/06/18 01:24:09;;;;;;;;;10.67;9.67;;;;;;;;117557;1180;25233;-74
2023/06/18 01:26:41;;;;;;;;;13.00;9.00;;;;;;;;117939;1180;25613;-73
2023/06/18 01:29:12;;;;;;;;;9.00;9.00;;;;;;;;117497;1192;24703;-73
2023/06/18 01:31:42;;;;;;;;;11.00;8.00;;;;;;;;117732;1192;25042;-73
2023/06/18 01:34:12;;;;;;;;;8.67;8.33;;;;;;;;117765;1180;24861;-73
2023/06/18 01:37:24;;;;;;;;;9.00;8.00;;;;;;;;117921;1191;25135;-73
2023/06/18 01:40:07;;;;;;;;;11.00;8.50;;;;;;;;117805;1185;25596;-73
2023/06/18 01:42:42;;;;;;;;;8.50;8.50;;;;;;;;117814;1181;25435;-75
2023/06/18 01:45:25;;;;;;;;;6.75;6.75;;;;;;;;117703;1181;25080;-79
2023/06/18 01:47:57;;;;;;;;;8.00;6.00;;;;;;;;117688;1192;25052;-80
2023/06/18 01:50:26;;;;;;;;;9.00;7.50;;;;;;;;117847;1181;25280;-76
2023/06/18 01:52:57;;;;;;;;;7.33;6.33;;;;;;;;117852;1179;25167;-73
2023/06/18 01:55:28;;;;;;;;;7.50;7.50;;;;;;;;117612;1180;25005;-73
2023/06/18 01:57:57;;;;;;;;;10.00;10.00;;;;;;;;117620;1186;25024;-73
2023/06/18 02:00:26;;;;;;;;;11.00;9.00;;;;;;;;117663;1180;24890;-74
2023/06/18 02:02:54;;;;;;;;;9.00;9.00;;;;;;;;117948;1192;25398;-73
2023/06/18 02:05:23;;;;;;;;;3.00;3.00;;;;;;;;117919;1192;25523;-74
2023/06/18 02:07:51;;;;;;;;;7.00;6.00;;;;;;;;117868;1184;25028;-73
2023/06/18 02:10:20;;;;;;;;;9.00;9.00;;;;;;;;117915;1180;25687;-73
2023/06/18 02:12:49;;;;;;;;;10.00;9.00;;;;;;;;117590;1183;25623;-73
2023/06/18 02:15:18;;;;;;;;;10.00;8.00;;;;;;;;117544;1190;25358;-73
2023/06/18 02:17:47;;;;;;;;;11.00;10.00;;;;;;;;117960;1180;25238;-73
2023/06/18 02:20:16;;;;;;;;;9.67;9.00;;;;;;;;117950;1180;24874;-73
2023/06/18 02:22:45;;;;;;;;;12.00;9.00;;;;;;;;117976;1179;25608;-73
2023/06/18 02:25:13;;;;;;;;;10.00;8.00;;;;;;;;117934;1180;24905;-74
2023/06/18 02:27:52;;;;;;;;;13.00;9.50;;;;;;;;117934;1179;25528;-72
2023/06/18 02:30:20;;;;;;;;;9.50;9.50;;;;;;;;117907;1192;24912;-72
2023/06/18 02:32:49;;;;;;;;;9.00;8.00;;;;;;;;117931;1181;24716;-72
2023/06/18 02:35:18;;;;;;;;;9.00;9.00;;;;;;;;117967;1181;24736;-72
2023/06/18 02:37:47;;;;;;;;;9.00;8.00;;;;;;;;117942;1192;25726;-72
2023/06/18 02:40:16;;;;;;;;;11.00;9.00;;;;;;;;117885;1181;25256;-73
2023/06/18 02:42:47;;;;;;;;;13.00;10.00;;;;;;;;117915;1181;24873;-73
2023/06/18 02:45:18;;;;;;;;;9.00;8.00;;;;;;;;117835;1187;25360;-74
2023/06/18 02:47:48;;;;;;;;;9.33;9.33;;;;;;;;117909;1192;25496;-73
2023/06/18 02:50:17;;;;;;;;;8.67;8.67;;;;;;;;117893;1181;25075;-73
2023/06/18 02:52:46;;;;;;;;;9.50;9.00;;;;;;;;117960;1180;25300;-73
2023/06/18 02:55:15;;;;;;;;;13.00;11.50;;;;;;;;117852;1180;24736;-74
2023/06/18 02:57:45;;;;;;;;;11.50;9.00;;;;;;;;117963;1190;25140;-73
2023/06/18 03:00:14;;;;;;;;;12.00;10.00;;;;;;;;117950;1192;25592;-73
2023/06/18 03:02:43;;;;;;;;;10.67;10.67;;;;;;;;117886;1191;25566;-73
2023/06/18 03:05:12;;;;;;;;;10.00;9.50;;;;;;;;117957;1192;24910;-74
2023/06/18 03:07:41;;;;;;;;;12.00;9.67;;;;;;;;117821;1180;24834;-73
2023/06/18 03:10:09;;;;;;;;;9.00;9.00;;;;;;;;117915;1180;25011;-73
2023/06/18 03:12:38;;;;;;;;;9.50;9.00;;;;;;;;117977;1192;25299;-73
2023/06/18 03:15:07;;;;;;;;;12.00;11.00;;;;;;;;117942;1180;25238;-73
2023/06/18 03:17:36;;;;;;;;;11.67;11.33;;;;;;;;117951;1179;26492;-73
2023/06/18 03:20:07;;;;;;;;;14.00;9.00;;;;;;;;117829;1185;25475;-73
2023/06/18 03:22:35;;;;;;;;;14.50;10.00;;;;;;;;117922;1187;25715;-73
2023/06/18 03:25:05;;;;;;;;;10.00;9.50;;;;;;;;117947;1192;25213;-73
2023/06/18 03:27:33;;;;;;;;;8.00;7.00;;;;;;;;117975;1180;24963;-73
2023/06/18 03:30:04;;;;;;;;;11.33;11.00;;;;;;;;117913;1183;25272;-73
2023/06/18 03:32:33;;;;;;;;;16.00;11.00;;;;;;;;117840;1192;24998;-73
2023/06/18 03:35:04;;;;;;;;;13.00;10.33;;;;;;;;117964;1180;25633;-74
2023/06/18 03:37:32;;;;;;;;;9.33;8.33;;;;;;;;117938;1181;25386;-73
2023/06/18 03:40:03;;;;;;;;;15.25;13.75;;;;;;;;117722;1180;25088;-73
2023/06/18 03:42:31;;;;;;;;;10.67;10.67;;;;;;;;117851;1179;25604;-73
2023/06/18 03:45:00;;;;;;;;;12.50;10.50;;;;;;;;117848;1179;25165;-71
2023/06/18 03:47:28;;;;;;;;;10.50;10.50;;;;;;;;117853;1180;25358;-74
2023/06/18 03:49:57;;;;;;;;;12.33;11.67;;;;;;;;117879;1179;25469;-73
2023/06/18 03:52:26;;;;;;;;;13.00;13.00;;;;;;;;117797;1183;25287;-73
2023/06/18 03:54:54;;;;;;;;;15.50;13.50;;;;;;;;117944;1187;24754;-74
2023/06/18 03:57:24;;;;;;;;;13.33;13.33;;;;;;;;117946;1180;25223;-73
2023/06/18 03:59:52;;;;;;;;;15.00;12.50;;;;;;;;117944;1190;24997;-74
2023/06/18 04:02:21;;;;;;;;;13.00;10.00;;;;;;;;117955;1183;25647;-71
2023/06/18 04:04:50;;;;;;;;;14.00;12.33;;;;;;;;117959;1179;25639;-73
2023/06/18 04:07:18;;;;;;;;;8.67;8.67;;;;;;;;117907;1180;25044;-73
2023/06/18 04:09:47;;;;;;;;;11.33;10.33;;;;;;;;117505;1180;25481;-73
2023/06/18 04:12:16;;;;;;;;;13.00;10.75;;;;;;;;117933;1181;25064;-73
2023/06/18 04:14:44;;;;;;;;;10.00;9.33;;;;;;;;117904;1180;25273;-73
2023/06/18 04:17:13;;;;;;;;;14.67;13.00;;;;;;;;117862;1181;25259;-72
2023/06/18 04:19:42;;;;;;;;;12.00;10.00;;;;;;;;117823;1190;25651;-71
2023/06/18 04:22:10;;;;;;;;;11.00;11.00;;;;;;;;117835;1192;25331;-73
2023/06/18 04:24:39;;;;;;;;;13.00;13.00;;;;;;;;117864;1192;25405;-73
2023/06/18 04:27:07;;;;;;;;;12.00;9.00;;;;;;;;117779;1181;25418;-73
2023/06/18 04:29:36;;;;;;;;;13.00;12.50;;;;;;;;117811;1180;24921;-72
2023/06/18 04:32:06;;;;;;;;;14.50;12.50;;;;;;;;117835;1187;24804;-72
2023/06/18 04:34:34;;;;;;;;;10.33;10.33;;;;;;;;117935;1181;25445;-73
2023/06/18 04:37:03;;;;;;;;;12.00;11.50;;;;;;;;117846;1180;25625;-73
2023/06/18 04:39:31;;;;;;;;;11.33;9.00;;;;;;;;117850;1180;25388;-73
2023/06/18 04:42:00;;;;;;;;;15.67;13.67;;;;;;;;117898;1181;25688;-72
2023/06/18 04:44:29;;;;;;;;;14.50;13.50;;;;;;;;117867;1192;25217;-73
2023/06/18 04:46:57;;;;;;;;;9.00;9.00;;;;;;;;117939;1179;24805;-73
2023/06/18 04:49:26;;;;;;;;;16.00;8.50;;;;;;;;117940;1180;26069;-73
2023/06/18 04:51:55;;;;;;;;;15.00;14.00;;;;;;;;117870;1191;25682;-73
2023/06/18 04:54:23;;;;;;;;;14.00;10.00;;;;;;;;117891;1181;24874;-73
2023/06/18 04:56:52;;;;;;;;;14.50;13.50;;;;;;;;117882;1181;24875;-74
2023/06/18 04:59:20;;;;;;;;;8.33;8.33;;;;;;;;117930;1192;25180;-73
2023/06/18 05:01:51;;;;;;;;;16.67;13.33;;;;;;;;117938;1179;24692;-74
2023/06/18 05:04:20;;;;;;;;;12.75;9.00;;;;;;;;117931;1179;24933;-72
2023/06/18 05:06:49;;;;;;;;;11.00;11.00;;;;;;;;117886;1192;25669;-74
2023/06/18 05:09:18;;;;;;;;;14.00;10.00;;;;;;;;117929;1179;24749;-72
2023/06/18 05:11:47;;;;;;;;;14.33;14.33;;;;;;;;117936;1181;25526;-74
2023/06/18 05:14:15;;;;;;;;;13.75;13.25;;;;;;;;117858;1180;24722;-75
2023/06/18 05:16:45;;;;;;;;;16.67;16.00;;;;;;;;117616;1180;25703;-74
2023/06/18 05:19:14;;;;;;;;;13.00;11.33;;;;;;;;117619;1192;24974;-73
2023/06/18 05:21:42;;;;;;;;;12.50;10.00;;;;;;;;117828;1192;25672;-72
2023/06/18 05:24:11;;;;;;;;;16.50;13.50;;;;;;;;117921;1180;24890;-73
2023/06/18 05:26:40;;;;;;;;;11.67;10.33;;;;;;;;117917;1192;25333;-74
2023/06/18 05:29:09;;;;;;;;;16.50;12.00;;;;;;;;117840;1192;24797;-73
2023/06/18 05:31:37;;;;;;;;;18.50;14.00;;;;;;;;117915;1180;24756;-73
2023/06/18 05:34:06;;;;;;;;;14.00;13.50;;;;;;;;117838;1180;25630;-72
2023/06/18 05:36:35;;;;;;;;;15.00;14.50;;;;;;;;117821;1181;25348;-72
2023/06/18 05:39:03;;;;;;;;;14.00;10.00;;;;;;;;117480;1183;25148;-72
2023/06/18 05:41:32;;;;;;;;;16.50;13.00;;;;;;;;117885;1191;25502;-73
2023/06/18 05:44:01;;;;;;;;;12.33;10.33;;;;;;;;117901;1180;25021;-74
2023/06/18 05:46:29;;;;;;;;;17.50;15.50;;;;;;;;117909;1180;25433;-74
2023/06/18 05:48:58;;;;;;;;;14.50;14.50;;;;;;;;117865;1180;24882;-72
2023/06/18 05:51:26;;;;;;;;;20.00;18.00;;;;;;;;117839;1192;25433;-75
2023/06/18 05:53:55;;;;;;;;;18.75;13.50;;;;;;;;117817;1183;25386;-77
2023/06/18 05:56:24;;;;;;;;;16.00;14.00;;;;;;;;117854;1192;25259;-75
2023/06/18 05:58:53;;;;;;;;;12.00;12.00;;;;;;;;117853;1180;25289;-60
2023/06/18 06:01:21;;;;;;;;;19.00;18.00;;;;;;;;117803;1180;24796;-61
2023/06/18 06:03:50;;;;;;;;;17.00;12.33;;;;;;;;117858;1181;24948;-60
2023/06/18 06:06:20;;;;;;;;;18.00;17.00;;;;;;;;117896;1192;25310;-60
2023/06/18 06:08:48;;;;;;;;;16.50;15.50;;;;;;;;117952;1192;25473;-60
2023/06/18 06:11:17;;;;;;;;;18.00;17.50;;;;;;;;117923;1179;25624;-61
2023/06/18 06:13:45;;;;;;;;;17.50;16.50;;;;;;;;117931;1180;25212;-61
2023/06/18 06:16:14;;;;;;;;;17.00;17.00;;;;;;;;117879;1180;25221;-62
2023/06/18 06:18:43;;;;;;;;;19.00;16.00;;;;;;;;117662;1180;24703;-61
2023/06/18 06:21:11;;;;;;;;;17.67;15.33;;;;;;;;117930;1181;25055;-60
2023/06/18 06:23:40;;;;;;;;;17.00;16.00;;;;;;;;117946;1192;24780;-60
2023/06/18 06:26:08;;;;;;;;;19.00;16.33;;;;;;;;117925;1179;24791;-60
2023/06/18 06:28:37;;;;;;;;;18.00;16.00;;;;;;;;119486;1192;25486;-60
2023/06/18 06:31:06;;;;;;;;;17.33;15.33;;;;;;;;119893;1184;25406;-61
2023/06/18 06:33:35;;;;;;;;;17.50;16.75;;;;;;;;119590;1192;25599;-61
2023/06/18 06:36:03;;;;;;;;;24.00;21.00;;;;;;;;119604;1185;25159;-60
2023/06/18 06:38:31;;;;;;;;;22.25;18.00;;;;;;;;119645;1188;25121;-61
2023/06/18 06:41:00;;;;;;;;;20.00;18.33;;;;;;;;119883;1192;25347;-61
2023/06/18 06:43:28;;;;;;;;;25.67;21.33;;;;;;;;119903;1187;25541;-61
2023/06/18 06:45:56;;;;;;;;;21.00;20.00;;;;;;;;119868;1189;24896;-62
2023/06/18 06:48:25;;;;;;;;;20.00;17.00;;;;;;;;119927;1188;24753;-61
2023/06/18 06:50:53;;;;;;;;;19.25;17.25;;;;;;;;119877;1183;24819;-62
2023/06/18 06:53:21;;;;;;;;;22.50;18.00;;;;;;;;119907;1188;25261;-61
2023/06/18 06:55:50;;;;;;;;;18.00;16.67;;;;;;;;119678;1189;25666;-61
2023/06/18 06:58:18;;;;;;;;;18.00;18.00;;;;;;;;119991;1180;25435;-60
2023/06/18 07:00:46;;;;;;;;;19.50;18.00;;;;;;;;119895;1192;25041;-59
2023/06/18 07:03:15;;;;;;;;;18.00;16.00;;;;;;;;119881;1192;25664;-60
2023/06/18 07:05:43;;;;;;;;;17.00;15.00;;;;;;;;119909;1192;24896;-62
2023/06/18 07:08:12;;;;;;;;;14.75;14.75;;;;;;;;119884;1192;25504;-62
2023/06/18 07:10:40;;;;;;;;;16.67;15.00;;;;;;;;119910;1183;24910;-61
2023/06/18 07:13:08;;;;;;;;;19.00;17.00;;;;;;;;119699;1192;25664;-61
2023/06/18 07:15:37;;;;;;;;;18.25;15.00;;;;;;;;119874;1192;25465;-61
2023/06/18 07:18:05;;;;;;;;;22.67;20.00;;;;;;;;119681;1180;24939;-61
2023/06/18 07:20:33;;;;;;;;;16.33;16.00;;;;;;;;119858;1192;25084;-61
2023/06/18 07:23:02;;;;;;;;;16.00;15.00;;;;;;;;119945;1188;25621;-61
2023/06/18 07:25:30;;;;;;;;;17.67;17.00;;;;;;;;119902;1188;25681;-61
2023/06/18 07:27:58;;;;;;;;;21.50;18.00;;;;;;;;119911;1183;25042;-60
2023/06/18 07:30:27;;;;;;;;;22.00;19.00;;;;;;;;119893;1192;25616;-60
2023/06/18 07:32:55;;;;;;;;;19.00;19.00;;;;;;;;119586;1192;25692;-61
2023/06/18 07:35:23;;;;;;;;;19.33;18.33;;;;;;;;119688;1192;24740;-61
2023/06/18 07:37:52;;;;;;;;;19.33;17.00;;;;;;;;119578;1192;25410;-61
2023/06/18 07:40:20;;;;;;;;;20.00;19.00;;;;;;;;119861;1183;25649;-60
2023/06/18 07:42:49;;;;;;;;;21.00;19.50;;;;;;;;119484;1192;24717;-60
2023/06/18 07:45:18;;;;;;;;;24.33;19.67;;;;;;;;119885;1192;24864;-61
2023/06/18 07:47:46;;;;;;;;;22.00;19.25;;;;;;;;119909;1179;25569;-61
2023/06/18 07:50:14;;;;;;;;;23.00;20.00;;;;;;;;119877;1192;24817;-61
2023/06/18 07:52:43;;;;;;;;;18.00;17.00;;;;;;;;119907;1189;25090;-61
2023/06/18 07:55:11;;;;;;;;;14.00;14.00;;;;;;;;119900;1180;25186;-61
2023/06/18 07:57:39;;;;;;;;;17.00;16.00;;;;;;;;119871;1192;25487;-61
2023/06/18 08:00:08;;;;;;;;;22.00;19.00;;;;;;;;119878;1192;24899;-61
2023/06/18 08:02:37;;;;;;;;;18.00;18.00;;;;;;;;119878;1192;24723;-60
2023/06/18 08:05:07;;;;;;;;;19.00;15.50;;;;;;;;119484;1192;25530;-59
2023/06/18 08:07:36;;;;;;;;;20.75;20.75;;;;;;;;119855;1192;25506;-58
2023/06/18 08:10:05;;;;;;;;;20.00;18.00;;;;;;;;119874;1183;25395;-60
2023/06/18 08:12:34;;;;;;;;;23.00;20.50;;;;;;;;119504;1192;25297;-60
2023/06/18 08:15:03;;;;;;;;;21.67;19.67;;;;;;;;119741;1184;24985;-60
2023/06/18 08:17:31;;;;;;;;;17.00;15.00;;;;;;;;119892;1192;25463;-60
2023/06/18 08:19:59;;;;;;;;;22.50;20.00;;;;;;;;119862;1184;25664;-60
2023/06/18 08:22:27;;;;;;;;;15.75;14.75;;;;;;;;119867;1188;25704;-60
2023/06/18 08:24:56;;;;;;;;;21.50;16.50;;;;;;;;119874;1192;26061;-60
2023/06/18 08:27:24;;;;;;;;;21.00;18.00;;;;;;;;119494;1185;25074;-59
2023/06/18 08:29:52;;;;;;;;;20.50;17.00;;;;;;;;119881;1192;25664;-60
2023/06/18 08:32:21;;;;;;;;;22.00;19.00;;;;;;;;119482;1182;25590;-60
2023/06/18 08:34:49;;;;;;;;;22.67;19.00;;;;;;;;119872;1183;25798;-60
2023/06/18 08:37:18;;;;;;;;;23.00;19.00;;;;;;;;119859;1192;25564;-59
2023/06/18 08:39:46;;;;;;;;;22.50;18.50;;;;;;;;119855;1192;25468;-59
2023/06/18 08:42:23;;;;;;;;;18.67;17.67;;;;;;;;119480;1192;25454;-59
2023/06/18 08:44:53;;;;;;;;;22.00;19.00;;;;;;;;119886;1184;24912;-60
2023/06/18 08:47:22;;;;;;;;;22.00;18.50;;;;;;;;119872;1192;25207;-60
2023/06/18 08:49:51;;;;;;;;;24.75;21.00;;;;;;;;119480;1192;25571;-59
2023/06/18 08:52:20;;;;;;;;;24.00;21.00;;;;;;;;119518;1186;25306;-60
2023/06/18 08:54:53;;;;;;;;;17.33;17.00;;;;;;;;119940;1187;25592;-60
2023/06/18 08:57:32;;;;;;;;;24.00;20.00;;;;;;;;119620;1186;25407;-60
2023/06/18 09:00:01;;;;;;;;;17.33;16.00;;;;;;;;119919;1187;25259;-60
2023/06/18 09:02:29;;;;;;;;;24.33;22.00;;;;;;;;119674;1189;24900;-60
2023/06/18 09:05:03;;;;;;;;;19.00;18.00;;;;;;;;119604;1192;25277;-61
2023/06/18 09:07:32;;;;;;;;;24.33;18.67;;;;;;;;119648;1188;25121;-60
2023/06/18 09:10:03;;;;;;;;;22.50;18.50;;;;;;;;119526;1189;25785;-60
2023/06/18 09:12:32;;;;;;;;;22.67;20.67;;;;;;;;119866;1189;24949;-62
2023/06/18 09:15:00;;;;;;;;;17.00;16.00;;;;;;;;119896;1188;25758;-61
2023/06/18 09:17:28;;;;;;;;;19.00;16.00;;;;;;;;119878;1184;25650;-60
2023/06/18 09:19:57;;;;;;;;;26.75;22.25;;;;;;;;119641;1189;25255;-60
2023/06/18 09:22:25;;;;;;;;;26.25;20.75;;;;;;;;119616;1192;25412;-61
2023/06/18 09:24:58;;;;;;;;;19.25;18.75;;;;;;;;119889;1188;25745;-60
2023/06/18 09:27:33;;;;;;;;;19.50;19.00;;;;;;;;119603;1192;25690;-60
2023/06/18 09:30:05;;;;;;;;;29.25;25.00;;;;;;;;119479;1192;25637;-61
2023/06/18 09:32:46;;;;;;;;;22.00;18.50;;;;;;;;119599;1186;25235;-60
2023/06/18 09:35:16;;;;;;;;;26.00;21.50;;;;;;;;119721;1185;25606;-60
2023/06/18 09:37:45;;;;;;;;;28.00;25.00;;;;;;;;119886;1192;25424;-60
2023/06/18 09:40:18;;;;;;;;;22.00;21.33;;;;;;;;119866;1192;24720;-61
2023/06/18 09:42:50;;;;;;;;;22.00;21.50;;;;;;;;119509;1192;25027;-60
2023/06/18 09:45:20;;;;;;;;;21.00;20.00;;;;;;;;119511;1192;25198;-60
2023/06/18 09:47:49;;;;;;;;;23.00;17.00;;;;;;;;119496;1192;24733;-61
2023/06/18 09:50:18;;;;;;;;;19.00;17.67;;;;;;;;119873;1192;25436;-60
2023/06/18 09:52:51;;;;;;;;;22.75;20.25;;;;;;;;119522;1192;25415;-60
2023/06/18 09:55:32;;;;;;;;;21.00;19.50;;;;;;;;119879;1184;24719;-60
2023/06/18 09:58:00;;;;;;;;;23.25;21.75;;;;;;;;119862;1192;24846;-60
2023/06/18 10:00:29;;;;;;;;;17.00;16.50;;;;;;;;119867;1184;24824;-60
2023/06/18 10:03:05;;;;;;;;;20.50;17.50;;;;;;;;119867;1192;25111;-59
2023/06/18 10:05:34;;;;;;;;;16.00;14.00;;;;;;;;119510;1192;25278;-59
2023/06/18 10:08:03;;;;;;;;;21.25;16.75;;;;;;;;119884;1183;25143;-61
2023/06/18 10:10:36;;;;;;;;;20.00;18.00;;;;;;;;119909;1188;25972;-60
2023/06/18 10:13:07;;;;;;;;;15.50;14.50;;;;;;;;119850;1192;25167;-60
2023/06/18 10:15:36;;;;;;;;;20.33;17.67;;;;;;;;119711;1189;25047;-60
2023/06/18 10:18:07;;;;;;;;;19.00;18.00;;;;;;;;119877;1192;25227;-60
2023/06/18 10:20:35;;;;;;;;;19.00;18.00;;;;;;;;119527;1192;25324;-59
2023/06/18 10:23:06;;;;;;;;;14.50;14.50;;;;;;;;119709;1192;25112;-59
2023/06/18 10:25:35;;;;;;;;;25.50;18.00;;;;;;;;119489;1192;25104;-61
2023/06/18 10:28:03;;;;;;;;;19.00;17.50;;;;;;;;119646;1188;25003;-59
2023/06/18 10:30:32;;;;;;;;;23.00;20.00;;;;;;;;119697;1185;25350;-60
2023/06/18 10:33:00;;;;;;;;;17.50;14.00;;;;;;;;119706;1192;25183;-60
2023/06/18 10:35:29;;;;;;;;;18.67;17.33;;;;;;;;119862;1192;24965;-61
2023/06/18 10:37:58;;;;;;;;;16.67;16.67;;;;;;;;119703;1185;25306;-61
2023/06/18 10:40:27;;;;;;;;;19.00;18.00;;;;;;;;119713;1189;25204;-59
2023/06/18 10:43:09;;;;;;;;;18.33;15.00;;;;;;;;119891;1188;25122;-60
2023/06/18 10:45:38;;;;;;;;;17.00;13.00;;;;;;;;119942;1183;24984;-60
2023/06/18 10:48:15;;;;;;;;;22.25;15.00;;;;;;;;119640;1185;25666;-60
2023/06/18 10:51:18;;;;;;;;;16.50;16.50;;;;;;;;119882;1184;25233;-60
2023/06/18 10:53:46;;;;;;;;;19.00;16.00;;;;;;;;119615;1192;24790;-60
2023/06/18 10:56:15;;;;;;;;;16.00;13.00;;;;;;;;119615;1189;25248;-61
2023/06/18 10:58:44;;;;;;;;;20.50;17.50;;;;;;;;119597;1186;25449;-60
2023/06/18 11:01:26;;;;;;;;;17.00;16.50;;;;;;;;119894;1188;25181;-59
2023/06/18 11:04:05;;;;;;;;;19.00;18.00;;;;;;;;119505;1192;25948;-62
2023/06/18 11:06:34;;;;;;;;;22.50;17.00;;;;;;;;119881;1183;25301;-62
2023/06/18 11:09:13;;;;;;;;;20.50;18.50;;;;;;;;119880;1188;25197;-57
2023/06/18 11:11:50;;;;;;;;;17.50;17.50;;;;;;;;119877;1188;25507;-60
2023/06/18 11:14:22;;;;;;;;;19.75;18.00;;;;;;;;119671;1186;24899;-60
2023/06/18 11:17:10;;;;;;;;;16.00;15.00;;;;;;;;119489;1186;24813;-59
2023/06/18 11:19:40;;;;;;;;;18.00;16.00;;;;;;;;119904;1183;24794;-61
2023/06/18 11:22:08;;;;;;;;;20.00;17.50;;;;;;;;119630;1190;25747;-60
2023/06/18 11:24:37;;;;;;;;;21.00;19.00;;;;;;;;119921;1188;25045;-60
2023/06/18 11:27:07;;;;;;;;;22.00;20.00;;;;;;;;119721;1188;25415;-60
2023/06/18 11:29:36;;;;;;;;;18.50;17.50;;;;;;;;119703;1189;25589;-62
2023/06/18 11:32:12;;;;;;;;;22.33;19.33;;;;;;;;119616;1185;25356;-59
2023/06/18 11:34:44;;;;;;;;;21.33;17.67;;;;;;;;119848;1183;25509;-59
2023/06/18 11:37:13;;;;;;;;;22.00;20.50;;;;;;;;119598;1192;25494;-59
2023/06/18 11:39:41;;;;;;;;;24.00;23.00;;;;;;;;119599;1192;25499;-59
2023/06/18 11:42:11;;;;;;;;;36.25;32.25;;;;;;;;119663;1180;25548;-59
2023/06/18 11:44:54;;;;;;;;;57.00;43.50;;;;;;;;119623;1192;25390;-59
2023/06/18 11:47:22;;;;;;;;;82.00;65.33;;;;;;;;119622;1192;25336;-60
2023/06/18 11:49:51;;;;;;;;;76.00;59.00;;;;;;;;119911;1183;25322;-60
2023/06/18 11:52:24;;;;;;;;;91.50;69.00;;;;;;;;119902;1183;25306;-60
2023/06/18 11:54:54;;;;;;;;;84.00;65.00;;;;;;;;119599;1190;25037;-60
2023/06/18 11:57:23;;;;;;;;;77.00;58.00;;;;;;;;119614;1189;25344;-60
2023/06/18 11:59:53;;;;;;;;;81.00;57.50;;;;;;;;119598;1189;24890;-60
2023/06/18 12:02:24;;;;;;;;;76.00;54.00;;;;;;;;119675;1189;25117;-60
2023/06/18 12:04:53;;;;;;;;;78.00;55.00;;;;;;;;119980;1183;25336;-60
2023/06/18 12:07:23;;;;;;;;;73.00;51.50;;;;;;;;119593;1185;25200;-59
2023/06/18 12:09:53;;;;;;;;;61.00;43.00;;;;;;;;119551;1190;25552;-60
2023/06/18 12:12:28;;;;;;;;;65.50;50.00;;;;;;;;119651;1184;26266;-60
2023/06/18 12:15:22;;;;;;;;;57.00;45.00;;;;;;;;119646;1189;25146;-60
2023/06/18 12:17:56;;;;;;;;;60.00;46.00;;;;;;;;119541;1183;25726;-60
2023/06/18 12:20:30;;;;;;;;;58.00;44.50;;;;;;;;119911;1188;25608;-60
2023/06/18 12:23:00;;;;;;;;;54.50;41.50;;;;;;;;119673;1189;25300;-60
2023/06/18 12:25:29;;;;;;;;;49.00;37.33;;;;;;;;119933;1188;24783;-60
2023/06/18 12:28:02;;;;;;;;;45.00;36.00;;;;;;;;119751;1185;25430;-60
2023/06/18 12:30:36;;;;;;;;;35.00;30.00;;;;;;;;119901;1188;24881;-59
2023/06/18 12:33:07;;;;;;;;;36.00;27.50;;;;;;;;119634;1185;25146;-59
2023/06/18 12:35:36;;;;;;;;;42.50;32.00;;;;;;;;119867;1188;25249;-59
2023/06/18 12:38:06;;;;;;;;;35.00;30.00;;;;;;;;119866;1192;25487;-60
2023/06/18 12:40:47;;;;;;;;;28.00;25.00;;;;;;;;119738;1189;24836;-61
2023/06/18 12:43:18;;;;;;;;;34.00;28.67;;;;;;;;119609;1185;25593;-60
2023/06/18 12:45:50;;;;;;;;;41.00;30.50;;;;;;;;119592;1186;25169;-61
2023/06/18 12:48:20;;;;;;;;;30.00;23.33;;;;;;;;119488;1186;25267;-59
2023/06/18 12:50:52;;;;;;;;;32.00;27.67;;;;;;;;119736;1189;25467;-60
2023/06/18 12:53:25;;;;;;;;;42.00;32.00;;;;;;;;119772;1189;24954;-60
2023/06/18 12:55:57;;;;;;;;;31.50;24.50;;;;;;;;119695;1189;24969;-60
2023/06/18 12:58:29;;;;;;;;;33.33;29.67;;;;;;;;119606;1192;25731;-60
2023/06/18 13:00:59;;;;;;;;;38.33;30.33;;;;;;;;119473;1192;25571;-60
2023/06/18 13:03:28;;;;;;;;;30.33;28.33;;;;;;;;119882;1183;25269;-60
2023/06/18 13:05:59;;;;;;;;;34.50;30.50;;;;;;;;119866;1192;24754;-60
2023/06/18 13:08:28;;;;;;;;;37.67;31.67;;;;;;;;119500;1192;25454;-60
2023/06/18 13:10:56;;;;;;;;;31.00;26.50;;;;;;;;119885;1183;25597;-60
2023/06/18 13:13:25;;;;;;;;;27.33;23.33;;;;;;;;119504;1186;25396;-59
2023/06/18 13:15:54;;;;;;;;;28.00;24.33;;;;;;;;119873;1192;25199;-60
2023/06/18 13:18:24;;;;;;;;;20.50;20.50;;;;;;;;119862;1192;25518;-60
2023/06/18 13:20:55;;;;;;;;;30.00;24.00;;;;;;;;119881;1188;25643;-60
2023/06/18 13:23:23;;;;;;;;;22.00;20.00;;;;;;;;119861;1192;24795;-59
2023/06/18 13:25:53;;;;;;;;;29.00;24.00;;;;;;;;119881;1192;26320;-59
2023/06/18 13:28:22;;;;;;;;;26.00;23.00;;;;;;;;119471;1192;25242;-59
2023/06/18 13:30:50;;;;;;;;;25.00;21.50;;;;;;;;119882;1179;25385;-60
2023/06/18 13:33:19;;;;;;;;;24.00;22.67;;;;;;;;119909;1188;25589;-60
2023/06/18 13:35:47;;;;;;;;;30.50;26.50;;;;;;;;119880;1192;24886;-60
2023/06/18 13:38:16;;;;;;;;;25.33;24.67;;;;;;;;119894;1188;25475;-60
2023/06/18 13:40:44;;;;;;;;;23.00;22.00;;;;;;;;119605;1192;25176;-61
2023/06/18 13:43:13;;;;;;;;;21.75;19.50;;;;;;;;119902;1179;25083;-60
2023/06/18 13:45:41;;;;;;;;;28.50;23.00;;;;;;;;119663;1186;25056;-60
2023/06/18 13:48:09;;;;;;;;;24.00;22.00;;;;;;;;119708;1192;25557;-60
2023/06/18 13:50:38;;;;;;;;;22.67;22.00;;;;;;;;119887;1183;24695;-61
2023/06/18 13:53:09;;;;;;;;;24.33;23.00;;;;;;;;119743;1192;25248;-59
2023/06/18 13:55:38;;;;;;;;;21.50;21.50;;;;;;;;119879;1192;25695;-60
2023/06/18 13:58:07;;;;;;;;;27.00;22.50;;;;;;;;119914;1183;24982;-60
2023/06/18 14:00:35;;;;;;;;;22.67;19.00;;;;;;;;119732;1192;25677;-60
2023/06/18 14:03:04;;;;;;;;;22.00;21.50;;;;;;;;119901;1192;24892;-61
2023/06/18 14:05:35;;;;;;;;;21.00;18.00;;;;;;;;119863;1192;25289;-60
2023/06/18 14:08:04;;;;;;;;;20.67;19.33;;;;;;;;119523;1183;25122;-62
2023/06/18 14:10:33;;;;;;;;;25.67;20.33;;;;;;;;119884;1188;25464;-60
2023/06/18 14:13:01;;;;;;;;;19.00;18.00;;;;;;;;119887;1192;24724;-60
2023/06/18 14:15:30;;;;;;;;;22.00;20.00;;;;;;;;119879;1192;25600;-60
2023/06/18 14:17:59;;;;;;;;;19.00;18.50;;;;;;;;119865;1192;25478;-59
2023/06/18 14:20:27;;;;;;;;;21.00;20.33;;;;;;;;119723;1192;25138;-60
2023/06/18 14:22:56;;;;;;;;;28.00;18.00;;;;;;;;119887;1189;25461;-59
2023/06/18 14:25:25;;;;;;;;;18.00;18.00;;;;;;;;119885;1183;25654;-61